createdAt,value
2017-12-23T00:01:52.676Z,8.53
2017-12-23T00:04:21.032Z,9.57
2017-12-23T00:06:49.385Z,9.90
2017-12-23T00:09:17.799Z,9.60
2017-12-23T00:11:46.275Z,9.63
2017-12-23T00:14:14.624Z,9.93
2017-12-23T00:16:42.959Z,10.10
2017-12-23T00:19:11.801Z,10.23
2017-12-23T00:21:40.159Z,10.30
2017-12-23T00:24:08.547Z,11.37
2017-12-23T00:26:36.915Z,10.57
2017-12-23T00:29:05.268Z,10.30
2017-12-23T00:31:34.032Z,10.40
2017-12-23T00:34:02.385Z,10.43
2017-12-23T00:36:30.749Z,10.57
2017-12-23T00:38:59.163Z,11.10
2017-12-23T00:41:27.508Z,10.50
2017-12-23T00:43:55.915Z,10.13
2017-12-23T00:46:24.267Z,9.33
2017-12-23T00:48:52.624Z,10.60
2017-12-23T00:51:21.039Z,11.10
2017-12-23T00:53:49.407Z,11.50
2017-12-23T00:56:17.797Z,10.40
2017-12-23T00:58:46.162Z,10.50
2017-12-23T01:01:14.533Z,11.80
2017-12-23T01:03:42.897Z,12.93
2017-12-23T01:06:11.740Z,10.83
2017-12-23T01:08:40.124Z,10.90
2017-12-23T01:11:08.472Z,9.80
2017-12-23T01:13:36.849Z,11.17
2017-12-23T01:16:05.280Z,11.03
2017-12-23T01:18:33.646Z,10.00
2017-12-23T01:21:02.004Z,10.50
2017-12-23T01:23:30.398Z,10.63
2017-12-23T01:25:58.754Z,10.30
2017-12-23T01:28:27.115Z,10.00
2017-12-23T01:30:55.472Z,10.33
2017-12-23T01:33:24.236Z,10.00
2017-12-23T01:35:53.393Z,10.00
2017-12-23T01:38:21.802Z,9.63
2017-12-23T01:40:50.167Z,11.27
2017-12-23T01:43:18.555Z,8.93
2017-12-23T01:45:46.935Z,10.00
2017-12-23T01:48:27.188Z,10.27
2017-12-23T01:50:55.551Z,8.97
2017-12-23T01:53:23.912Z,9.73
2017-12-23T01:55:52.332Z,9.47
2017-12-23T01:58:21.706Z,8.87
2017-12-23T02:00:50.065Z,8.53
2017-12-23T02:03:18.830Z,8.50
2017-12-23T02:05:47.285Z,9.07
2017-12-23T02:08:15.764Z,9.27
2017-12-23T02:10:44.127Z,8.90
2017-12-23T02:13:12.523Z,9.10
2017-12-23T02:15:40.888Z,8.87
2017-12-23T02:18:09.255Z,8.23
2017-12-23T02:20:38.426Z,9.03
2017-12-23T02:23:07.193Z,8.93
2017-12-23T02:25:35.589Z,10.80
2017-12-23T02:28:04.299Z,10.23
2017-12-23T02:30:32.683Z,11.17
2017-12-23T02:33:01.044Z,11.43
2017-12-23T02:35:29.441Z,11.40
2017-12-23T02:37:57.853Z,12.67
2017-12-23T02:40:26.211Z,12.67
2017-12-23T02:42:54.578Z,12.00
2017-12-23T02:45:22.982Z,11.43
2017-12-23T02:47:51.341Z,13.50
2017-12-23T02:50:19.716Z,13.60
2017-12-23T02:52:48.077Z,12.93
2017-12-23T02:55:16.832Z,12.40
2017-12-23T02:57:45.292Z,13.17
2017-12-23T03:00:13.655Z,14.30
2017-12-23T03:02:42.012Z,13.50
2017-12-23T03:05:10.374Z,14.10
2017-12-23T03:07:39.133Z,13.93
2017-12-23T03:10:07.495Z,14.60
2017-12-23T03:12:35.872Z,14.07
2017-12-23T03:15:04.225Z,14.73
2017-12-23T03:17:32.624Z,14.30
2017-12-23T03:20:00.993Z,14.60
2017-12-23T03:22:29.355Z,13.83
2017-12-23T03:24:57.712Z,14.03
2017-12-23T03:27:26.465Z,14.40
2017-12-23T03:29:54.835Z,14.33
2017-12-23T03:32:23.199Z,13.97
2017-12-23T03:34:51.608Z,12.93
2017-12-23T03:37:19.976Z,13.60
2017-12-23T03:39:48.347Z,13.30
2017-12-23T03:42:16.729Z,12.97
2017-12-23T03:44:45.086Z,13.20
2017-12-23T03:47:13.443Z,13.63
2017-12-23T03:49:41.799Z,13.30
2017-12-23T03:52:10.586Z,13.53
2017-12-23T03:54:38.940Z,12.13
2017-12-23T03:57:07.296Z,13.50
2017-12-23T03:59:35.665Z,12.57
2017-12-23T04:02:04.028Z,12.50
2017-12-23T04:04:32.392Z,11.37
2017-12-23T04:07:01.089Z,12.63
2017-12-23T04:09:29.492Z,11.30
2017-12-23T04:11:58.996Z,12.67
2017-12-23T04:14:27.359Z,12.70
2017-12-23T04:16:55.764Z,14.60
2017-12-23T04:19:24.136Z,12.93
2017-12-23T04:21:52.512Z,15.07
2017-12-23T04:24:20.869Z,13.73
2017-12-23T04:26:49.239Z,13.47
2017-12-23T04:29:17.616Z,12.97
2017-12-23T04:31:45.984Z,12.90
2017-12-23T04:34:14.331Z,13.50
2017-12-23T04:36:43.103Z,14.50
2017-12-23T04:39:11.472Z,14.77
2017-12-23T04:41:39.839Z,15.43
2017-12-23T04:44:08.315Z,14.47
2017-12-23T04:46:36.706Z,15.87
2017-12-23T04:49:05.152Z,14.80
2017-12-23T04:51:33.512Z,14.90
2017-12-23T04:54:02.258Z,14.00
2017-12-23T04:56:30.729Z,14.67
2017-12-23T04:58:59.098Z,13.70
2017-12-23T05:01:27.519Z,14.30
2017-12-23T05:03:56.071Z,16.07
2017-12-23T05:06:24.996Z,13.17
2017-12-23T05:08:53.357Z,14.70
2017-12-23T05:11:21.734Z,15.40
2017-12-23T05:13:50.093Z,14.40
2017-12-23T05:16:18.469Z,13.43
2017-12-23T05:18:46.921Z,13.37
2017-12-23T05:21:15.280Z,12.90
2017-12-23T05:23:44.076Z,13.37
2017-12-23T05:26:13.002Z,14.03
2017-12-23T05:28:41.388Z,13.83
2017-12-23T05:31:09.755Z,13.53
2017-12-23T05:33:38.115Z,14.70
2017-12-23T05:36:06.476Z,14.80
2017-12-23T05:38:34.894Z,14.60
2017-12-23T05:41:03.574Z,13.97
2017-12-23T05:43:31.981Z,14.73
2017-12-23T05:46:00.457Z,14.97
2017-12-23T05:48:28.820Z,15.17
2017-12-23T05:50:57.170Z,14.73
2017-12-23T05:53:25.589Z,17.73
2017-12-23T05:55:54.031Z,17.27
2017-12-23T05:58:22.401Z,16.60
2017-12-23T06:00:50.748Z,16.27
2017-12-23T06:03:19.126Z,17.27
2017-12-23T06:05:47.572Z,16.33
2017-12-23T06:08:15.934Z,18.07
2017-12-23T06:10:44.324Z,19.07
2017-12-23T06:13:12.693Z,19.10
2017-12-23T06:15:41.052Z,19.80
2017-12-23T06:18:09.465Z,20.63
2017-12-23T06:20:37.830Z,19.10
2017-12-23T06:23:06.176Z,19.10
2017-12-23T06:25:34.936Z,19.83
2017-12-23T06:28:03.444Z,21.53
2017-12-23T06:30:32.203Z,21.00
2017-12-23T06:33:01.725Z,19.27
2017-12-23T06:35:30.901Z,20.37
2017-12-23T06:37:59.252Z,21.17
2017-12-23T06:40:27.616Z,21.13
2017-12-23T06:42:55.993Z,20.90
2017-12-23T06:45:24.353Z,21.43
2017-12-23T06:47:52.728Z,24.30
2017-12-23T06:50:21.476Z,23.40
2017-12-23T06:52:49.839Z,24.90
2017-12-23T06:55:18.272Z,23.60
2017-12-23T06:57:47.016Z,24.30
2017-12-23T07:00:15.384Z,22.77
2017-12-23T07:02:43.764Z,25.43
2017-12-23T07:05:12.141Z,23.40
2017-12-23T07:07:40.486Z,24.90
2017-12-23T07:10:08.839Z,24.70
2017-12-23T07:12:37.596Z,25.47
2017-12-23T07:15:05.947Z,24.03
2017-12-23T07:17:34.330Z,24.27
2017-12-23T07:20:02.685Z,24.10
2017-12-23T07:22:31.061Z,25.63
2017-12-23T07:24:59.408Z,25.17
2017-12-23T07:27:27.871Z,24.40
2017-12-23T07:29:56.242Z,24.13
2017-12-23T07:32:24.597Z,22.47
2017-12-23T07:34:52.944Z,24.87
2017-12-23T07:37:21.708Z,25.00
2017-12-23T07:39:50.177Z,24.57
2017-12-23T07:42:18.552Z,24.03
2017-12-23T07:44:46.908Z,23.60
2017-12-23T07:47:15.332Z,23.20
2017-12-23T07:49:43.662Z,22.70
2017-12-23T07:52:12.020Z,22.07
2017-12-23T07:54:40.377Z,22.83
2017-12-23T07:57:08.839Z,22.77
2017-12-23T07:59:37.308Z,21.17
2017-12-23T08:02:05.676Z,22.40
2017-12-23T08:04:34.043Z,24.27
2017-12-23T08:07:02.436Z,20.83
2017-12-23T08:09:30.821Z,20.83
2017-12-23T08:11:59.177Z,22.23
2017-12-23T08:14:27.532Z,20.60
2017-12-23T08:16:55.958Z,21.67
2017-12-23T08:19:24.428Z,22.83
2017-12-23T08:21:52.788Z,20.93
2017-12-23T08:24:21.146Z,19.63
2017-12-23T08:26:49.916Z,20.30
2017-12-23T08:29:18.274Z,20.83
2017-12-23T08:31:46.632Z,18.97
2017-12-23T08:34:16.036Z,20.40
2017-12-23T08:36:44.407Z,21.97
2017-12-23T08:39:12.817Z,19.10
2017-12-23T08:41:41.168Z,21.60
2017-12-23T08:44:09.524Z,19.80
2017-12-23T08:46:38.544Z,19.30
2017-12-23T08:49:06.901Z,20.27
2017-12-23T08:51:35.319Z,20.37
2017-12-23T08:54:03.702Z,18.20
2017-12-23T08:56:32.163Z,19.80
2017-12-23T08:59:00.531Z,19.63
2017-12-23T09:01:28.895Z,19.63
2017-12-23T09:03:57.257Z,19.47
2017-12-23T09:06:25.688Z,20.87
2017-12-23T09:08:54.048Z,21.47
2017-12-23T09:11:22.416Z,18.93
2017-12-23T09:13:50.780Z,20.40
2017-12-23T09:16:19.205Z,20.47
2017-12-23T09:18:47.563Z,19.90
2017-12-23T09:21:15.915Z,21.73
2017-12-23T09:23:44.333Z,19.70
2017-12-23T09:26:12.689Z,20.23
2017-12-23T09:28:41.054Z,20.30
2017-12-23T09:31:09.468Z,20.63
2017-12-23T09:33:37.843Z,20.70
2017-12-23T09:36:06.332Z,18.70
2017-12-23T09:38:34.710Z,19.80
2017-12-23T09:41:03.079Z,18.97
2017-12-23T09:43:31.448Z,19.57
2017-12-23T09:45:59.829Z,20.83
2017-12-23T09:48:28.229Z,19.53
2017-12-23T09:50:56.591Z,20.47
2017-12-23T09:53:24.960Z,19.10
2017-12-23T09:55:53.314Z,17.20
2017-12-23T09:58:21.724Z,17.37
2017-12-23T10:00:50.116Z,18.30
2017-12-23T10:03:18.489Z,17.30
2017-12-23T10:05:46.865Z,16.27
2017-12-23T10:08:15.267Z,16.17
2017-12-23T10:10:43.636Z,15.00
2017-12-23T10:13:12.004Z,15.80
2017-12-23T10:15:40.384Z,15.30
2017-12-23T10:18:08.744Z,13.30
2017-12-23T10:20:37.107Z,13.77
2017-12-23T10:23:05.456Z,14.33
2017-12-23T10:25:33.911Z,11.90
2017-12-23T10:28:02.288Z,11.63
2017-12-23T10:30:30.667Z,11.20
2017-12-23T10:32:59.050Z,11.70
2017-12-23T10:35:27.413Z,11.90
2017-12-23T10:37:55.794Z,9.83
2017-12-23T10:40:24.156Z,10.03
2017-12-23T10:42:52.550Z,8.83
2017-12-23T10:45:20.899Z,8.53
2017-12-23T10:47:49.280Z,9.20
2017-12-23T10:50:17.698Z,8.20
2017-12-23T10:52:46.056Z,9.03
2017-12-23T10:55:14.420Z,9.30
2017-12-23T10:57:42.822Z,8.00
2017-12-23T11:00:11.194Z,7.80
2017-12-23T11:02:39.545Z,7.30
2017-12-23T11:05:07.965Z,7.80
2017-12-23T11:07:36.309Z,7.60
2017-12-23T11:10:04.656Z,7.73
2017-12-23T11:12:33.101Z,5.83
2017-12-23T11:15:01.460Z,6.57
2017-12-23T11:17:29.835Z,5.43
2017-12-23T11:19:58.233Z,6.47
2017-12-23T11:22:26.591Z,5.40
2017-12-23T11:24:54.955Z,5.90
2017-12-23T11:27:23.382Z,6.10
2017-12-23T11:29:51.727Z,6.17
2017-12-23T11:32:20.075Z,6.00
2017-12-23T11:34:48.853Z,5.37
2017-12-23T11:37:17.225Z,6.30
2017-12-23T11:39:45.596Z,5.00
2017-12-23T11:42:14.068Z,5.10
2017-12-23T11:44:42.428Z,5.57
2017-12-23T11:47:10.784Z,5.50
2017-12-23T11:49:39.148Z,4.50
2017-12-23T11:52:08.436Z,4.67
2017-12-23T11:54:37.294Z,4.67
2017-12-23T11:57:05.653Z,3.80
2017-12-23T11:59:34.041Z,4.10
2017-12-23T12:02:02.417Z,4.30
2017-12-23T12:04:30.839Z,3.90
2017-12-23T12:06:59.140Z,3.87
2017-12-23T12:09:27.500Z,4.40
2017-12-23T12:11:56.352Z,3.87
2017-12-23T12:14:24.829Z,4.30
2017-12-23T12:16:53.211Z,3.67
2017-12-23T12:19:21.656Z,3.97
2017-12-23T12:21:49.999Z,4.43
2017-12-23T12:24:18.748Z,4.23
2017-12-23T12:26:47.130Z,3.37
2017-12-23T12:29:15.500Z,4.27
2017-12-23T12:31:43.882Z,3.90
2017-12-23T12:34:12.233Z,3.93
2017-12-23T12:36:40.587Z,3.90
2017-12-23T12:39:10.168Z,4.27
2017-12-23T12:41:38.540Z,4.23
2017-12-23T12:44:06.915Z,4.50
2017-12-23T12:46:35.285Z,4.50
2017-12-23T12:49:03.651Z,4.40
2017-12-23T12:51:32.032Z,5.13
2017-12-23T12:54:00.398Z,4.53
2017-12-23T12:56:29.723Z,4.70
2017-12-23T12:58:58.090Z,5.60
2017-12-23T13:01:26.468Z,4.73
2017-12-23T13:03:54.825Z,5.53
2017-12-23T13:06:23.203Z,5.37
2017-12-23T13:08:51.557Z,5.70
2017-12-23T13:11:20.335Z,5.60
2017-12-23T13:13:49.205Z,6.50
2017-12-23T13:16:17.587Z,6.80
2017-12-23T13:18:46.048Z,6.07
2017-12-23T13:21:14.416Z,6.33
2017-12-23T13:23:42.800Z,6.20
2017-12-23T13:26:11.155Z,6.50
2017-12-23T13:28:39.568Z,6.87
2017-12-23T13:31:07.928Z,6.17
2017-12-23T13:33:36.292Z,5.33
2017-12-23T13:36:04.660Z,5.73
2017-12-23T13:38:33.106Z,5.90
2017-12-23T13:41:01.558Z,6.17
2017-12-23T13:43:29.925Z,5.97
2017-12-23T13:45:58.312Z,7.27
2017-12-23T13:48:26.675Z,5.10
2017-12-23T13:50:55.037Z,6.00
2017-12-23T13:53:23.481Z,6.00
2017-12-23T13:55:51.832Z,5.43
2017-12-23T13:58:20.201Z,5.47
2017-12-23T14:00:48.560Z,6.67
2017-12-23T14:03:16.979Z,6.33
2017-12-23T14:05:45.336Z,6.83
2017-12-23T14:08:13.734Z,7.70
2017-12-23T14:10:42.103Z,7.90
2017-12-23T14:13:10.461Z,7.63
2017-12-23T14:15:38.836Z,7.27
2017-12-23T14:18:07.201Z,8.70
2017-12-23T14:20:37.163Z,7.47
2017-12-23T14:23:05.524Z,7.13
2017-12-23T14:25:33.904Z,8.57
2017-12-23T14:28:02.265Z,7.77
2017-12-23T14:30:30.621Z,7.83
2017-12-23T14:32:59.391Z,7.77
2017-12-23T14:35:28.143Z,9.17
2017-12-23T14:37:56.520Z,9.20
2017-12-23T14:40:24.878Z,11.23
2017-12-23T14:42:54.217Z,10.40
2017-12-23T14:45:22.689Z,11.27
2017-12-23T14:47:51.045Z,10.70
2017-12-23T14:50:19.460Z,12.30
2017-12-23T14:52:47.823Z,13.03
2017-12-23T14:55:16.296Z,12.30
2017-12-23T14:57:44.675Z,13.33
2017-12-23T15:00:13.489Z,13.40
2017-12-23T15:02:41.840Z,13.30
2017-12-23T15:05:10.189Z,13.00
2017-12-23T15:07:38.611Z,12.97
2017-12-23T15:10:07.059Z,13.37
2017-12-23T15:12:35.562Z,13.10
2017-12-23T15:15:03.917Z,13.03
2017-12-23T15:17:32.322Z,13.23
2017-12-23T15:20:00.703Z,15.63
2017-12-23T15:22:29.073Z,14.93
2017-12-23T15:24:57.449Z,16.57
2017-12-23T15:27:25.821Z,16.53
2017-12-23T15:29:54.219Z,17.37
2017-12-23T15:32:22.575Z,17.60
2017-12-23T15:34:50.944Z,18.87
2017-12-23T15:37:19.367Z,19.03
2017-12-23T15:39:47.727Z,21.03
2017-12-23T15:42:16.097Z,20.03
2017-12-23T15:44:44.472Z,22.37
2017-12-23T15:47:12.852Z,23.90
2017-12-23T15:49:41.232Z,22.57
2017-12-23T15:52:09.612Z,24.80
2017-12-23T15:54:37.979Z,27.37
2017-12-23T15:57:06.336Z,27.20
2017-12-23T15:59:35.110Z,26.30
2017-12-23T16:02:03.964Z,26.53
2017-12-23T16:04:32.436Z,27.00
2017-12-23T16:07:00.850Z,26.47
2017-12-23T16:09:29.305Z,26.33
2017-12-23T16:11:57.661Z,27.20
2017-12-23T16:14:26.025Z,29.00
2017-12-23T16:16:54.396Z,27.70
2017-12-23T16:19:22.777Z,26.47
2017-12-23T16:21:51.146Z,30.67
2017-12-23T16:24:19.980Z,29.57
2017-12-23T16:26:48.339Z,29.00
2017-12-23T16:29:16.744Z,32.73
2017-12-23T16:31:45.220Z,33.43
2017-12-23T16:34:13.678Z,31.33
2017-12-23T16:36:42.046Z,31.23
2017-12-23T16:39:10.413Z,30.70
2017-12-23T16:41:38.822Z,35.03
2017-12-23T16:44:07.216Z,35.00
2017-12-23T16:46:35.577Z,31.60
2017-12-23T16:49:04.050Z,35.43
2017-12-23T16:51:32.444Z,35.00
2017-12-23T16:54:00.835Z,33.27
2017-12-23T16:56:29.236Z,35.50
2017-12-23T16:58:57.656Z,37.00
2017-12-23T17:01:26.067Z,36.97
2017-12-23T17:03:54.556Z,38.80
2017-12-23T17:06:22.971Z,38.80
2017-12-23T17:08:51.309Z,38.37
2017-12-23T17:11:19.697Z,37.40
2017-12-23T17:13:48.179Z,38.77
2017-12-23T17:16:16.535Z,38.53
2017-12-23T17:18:44.896Z,39.23
2017-12-23T17:21:13.269Z,36.77
2017-12-23T17:23:41.663Z,38.77
2017-12-23T17:26:10.039Z,39.13
2017-12-23T17:28:56.265Z,39.30
2017-12-23T17:31:24.648Z,37.73
2017-12-23T17:33:53.022Z,36.80
2017-12-23T17:36:21.394Z,36.70
2017-12-23T17:38:49.749Z,38.10
2017-12-23T17:41:18.113Z,39.80
2017-12-23T17:43:46.487Z,37.77
2017-12-23T17:46:15.233Z,37.47
2017-12-23T17:48:43.600Z,37.20
2017-12-23T17:51:11.956Z,36.43
2017-12-23T17:53:40.352Z,38.00
2017-12-23T17:56:08.722Z,38.30
2017-12-23T17:58:37.121Z,38.63
2017-12-23T18:01:05.499Z,39.50
2017-12-23T18:03:33.871Z,39.67
2017-12-23T18:06:02.304Z,40.30
2017-12-23T18:08:31.050Z,40.30
2017-12-23T18:10:59.422Z,42.20
2017-12-23T18:13:27.797Z,40.40
2017-12-23T18:15:56.258Z,39.23
2017-12-23T18:18:24.669Z,38.50
2017-12-23T18:20:53.044Z,38.70
2017-12-23T18:23:21.523Z,36.90
2017-12-23T18:25:49.892Z,36.20
2017-12-23T18:28:18.251Z,37.30
2017-12-23T18:30:46.620Z,35.67
2017-12-23T18:33:14.995Z,36.67
2017-12-23T18:35:43.387Z,34.50
2017-12-23T18:38:11.780Z,35.97
2017-12-23T18:40:40.226Z,36.03
2017-12-23T18:43:09.077Z,35.33
2017-12-23T18:45:37.432Z,34.70
2017-12-23T18:48:05.804Z,33.97
2017-12-23T18:50:34.176Z,32.77
2017-12-23T18:53:02.543Z,30.90
2017-12-23T18:55:30.922Z,33.97
2017-12-23T18:57:59.414Z,32.73
2017-12-23T19:00:27.792Z,32.37
2017-12-23T19:02:56.157Z,32.27
2017-12-23T19:05:24.520Z,34.03
2017-12-23T19:07:53.268Z,33.57
2017-12-23T19:10:21.731Z,30.33
2017-12-23T19:12:50.084Z,30.00
2017-12-23T19:15:18.501Z,28.20
2017-12-23T19:17:46.828Z,29.10
2017-12-23T19:20:15.666Z,28.83
2017-12-23T19:22:44.027Z,29.40
2017-12-23T19:25:12.401Z,28.57
2017-12-23T19:27:40.800Z,27.67
2017-12-23T19:30:09.184Z,27.87
2017-12-23T19:32:37.544Z,27.00
2017-12-23T19:35:05.944Z,28.67
2017-12-23T19:37:34.403Z,28.73
2017-12-23T19:40:02.792Z,27.07
2017-12-23T19:42:31.151Z,27.40
2017-12-23T19:44:59.551Z,24.83
2017-12-23T19:47:27.908Z,26.67
2017-12-23T19:49:56.273Z,26.90
2017-12-23T19:52:24.631Z,26.17
2017-12-23T19:54:53.382Z,24.77
2017-12-23T19:57:21.764Z,24.47
2017-12-23T19:59:50.177Z,23.43
2017-12-23T20:02:18.955Z,24.03
2017-12-23T20:04:47.307Z,25.17
2017-12-23T20:07:15.672Z,22.67
2017-12-23T20:09:44.039Z,22.03
2017-12-23T20:12:12.529Z,23.97
2017-12-23T20:14:40.906Z,23.93
2017-12-23T20:17:09.268Z,22.73
2017-12-23T20:19:37.665Z,23.47
2017-12-23T20:22:06.029Z,22.70
2017-12-23T20:24:34.379Z,21.73
2017-12-23T20:27:03.135Z,25.20
2017-12-23T20:29:31.612Z,21.43
2017-12-23T20:32:00.032Z,23.80
2017-12-23T20:34:28.475Z,22.33
2017-12-23T20:36:56.833Z,19.93
2017-12-23T20:39:25.186Z,20.77
2017-12-23T20:41:53.549Z,21.33
2017-12-23T20:44:22.312Z,22.13
2017-12-23T20:46:50.691Z,20.73
2017-12-23T20:49:19.149Z,21.53
2017-12-23T20:51:47.561Z,19.37
2017-12-23T20:54:16.420Z,20.97
2017-12-23T20:56:44.781Z,18.80
2017-12-23T20:59:13.184Z,18.13
2017-12-23T21:01:41.574Z,18.83
2017-12-23T21:04:10.040Z,18.23
2017-12-23T21:06:38.408Z,17.90
2017-12-23T21:09:06.786Z,19.43
2017-12-23T21:11:35.162Z,19.20
2017-12-23T21:14:03.522Z,18.10
2017-12-23T21:16:31.884Z,18.57
2017-12-23T21:19:00.237Z,18.90
2017-12-23T21:21:29.163Z,18.37
2017-12-23T21:23:57.530Z,19.43
2017-12-23T21:26:25.896Z,16.70
2017-12-23T21:28:54.732Z,18.60
2017-12-23T21:31:23.604Z,18.37
2017-12-23T21:33:51.956Z,18.97
2017-12-23T21:36:20.791Z,17.90
2017-12-23T21:38:49.172Z,18.10
2017-12-23T21:41:17.531Z,18.30
2017-12-23T21:43:45.942Z,18.00
2017-12-23T21:46:14.307Z,21.03
2017-12-23T21:48:42.684Z,16.93
2017-12-23T21:51:11.064Z,17.13
2017-12-23T21:53:39.432Z,17.93
2017-12-23T21:56:07.828Z,18.33
2017-12-23T21:58:36.291Z,18.60
2017-12-23T22:01:04.655Z,18.87
2017-12-23T22:03:33.021Z,18.03
2017-12-23T22:06:01.392Z,19.87
2017-12-23T22:08:30.156Z,18.80
2017-12-23T22:10:58.516Z,18.10
2017-12-23T22:13:26.888Z,19.10
2017-12-23T22:15:55.248Z,19.07
2017-12-23T22:18:23.615Z,19.73
2017-12-23T22:20:51.968Z,18.97
2017-12-23T22:23:20.736Z,19.30
2017-12-23T22:25:49.136Z,18.37
2017-12-23T22:28:17.883Z,19.17
2017-12-23T22:30:46.264Z,21.00
2017-12-23T22:33:14.624Z,19.57
2017-12-23T22:35:43.016Z,21.10
2017-12-23T22:38:11.372Z,20.40
2017-12-23T22:40:40.608Z,22.63
2017-12-23T22:43:08.996Z,22.20
2017-12-23T22:45:37.401Z,21.80
2017-12-23T22:48:06.535Z,22.60
2017-12-23T22:50:34.927Z,23.17
2017-12-23T22:53:03.293Z,22.80
2017-12-23T22:55:31.646Z,23.00
2017-12-23T22:58:00.021Z,23.33
2017-12-23T23:00:28.431Z,23.83
2017-12-23T23:02:56.783Z,22.37
2017-12-23T23:05:25.148Z,24.50
2017-12-23T23:07:53.507Z,22.27
2017-12-23T23:10:22.277Z,23.83
2017-12-23T23:12:50.632Z,22.93
2017-12-23T23:15:19.125Z,23.00
2017-12-23T23:17:47.483Z,23.73
2017-12-23T23:20:15.845Z,24.87
2017-12-23T23:22:44.207Z,24.87
2017-12-23T23:25:13.050Z,26.27
2017-12-23T23:27:41.425Z,25.60
2017-12-23T23:30:09.775Z,24.27
2017-12-23T23:32:38.176Z,25.03
2017-12-23T23:35:06.532Z,26.53
2017-12-23T23:37:34.932Z,26.47
2017-12-23T23:40:03.340Z,25.67
2017-12-23T23:42:31.707Z,26.70
2017-12-23T23:45:00.071Z,25.17
2017-12-23T23:47:28.472Z,25.57
2017-12-23T23:49:56.973Z,25.93
2017-12-23T23:52:26.833Z,25.50
2017-12-23T23:54:55.200Z,28.87
2017-12-23T23:57:23.560Z,27.07
2017-12-23T23:59:51.924Z,25.70
